sensor_id;sensor_type;location;lat;lon;timestamp;temperature;humidity
66568;DHT22;53422;49.296;6.900;2022-07-26T00:00:12;24.60;50.20
66568;DHT22;53422;49.296;6.900;2022-07-26T00:02:39;24.60;50.40
66568;DHT22;53422;49.296;6.900;2022-07-26T00:05:05;24.60;50.20
66568;DHT22;53422;49.296;6.900;2022-07-26T00:07:31;24.60;50.30
66568;DHT22;53422;49.296;6.900;2022-07-26T00:09:57;24.50;50.30
66568;DHT22;53422;49.296;6.900;2022-07-26T00:12:22;24.50;50.10
66568;DHT22;53422;49.296;6.900;2022-07-26T00:14:48;24.50;50.30
66568;DHT22;53422;49.296;6.900;2022-07-26T00:17:14;24.50;50.20
66568;DHT22;53422;49.296;6.900;2022-07-26T00:19:39;24.50;50.10
66568;DHT22;53422;49.296;6.900;2022-07-26T00:22:05;24.40;50.10
66568;DHT22;53422;49.296;6.900;2022-07-26T00:24:49;24.40;50.00
66568;DHT22;53422;49.296;6.900;2022-07-26T00:27:14;24.40;50.10
66568;DHT22;53422;49.296;6.900;2022-07-26T00:29:40;24.40;50.10
66568;DHT22;53422;49.296;6.900;2022-07-26T00:32:06;24.30;50.10
66568;DHT22;53422;49.296;6.900;2022-07-26T00:34:31;24.30;50.00
66568;DHT22;53422;49.296;6.900;2022-07-26T00:36:57;24.30;50.00
66568;DHT22;53422;49.296;6.900;2022-07-26T00:39:22;24.30;50.10
66568;DHT22;53422;49.296;6.900;2022-07-26T00:41:49;24.30;49.90
66568;DHT22;53422;49.296;6.900;2022-07-26T00:44:14;24.30;49.90
66568;DHT22;53422;49.296;6.900;2022-07-26T00:46:44;24.30;49.90
66568;DHT22;53422;49.296;6.900;2022-07-26T00:49:10;24.20;49.90
66568;DHT22;53422;49.296;6.900;2022-07-26T00:51:36;24.20;49.80
66568;DHT22;53422;49.296;6.900;2022-07-26T00:54:03;24.10;49.80
66568;DHT22;53422;49.296;6.900;2022-07-26T00:56:30;24.10;49.80
66568;DHT22;53422;49.296;6.900;2022-07-26T00:58:56;24.10;49.70
66568;DHT22;53422;49.296;6.900;2022-07-26T01:01:21;24.10;49.80
66568;DHT22;53422;49.296;6.900;2022-07-26T01:03:50;24.10;49.80
66568;DHT22;53422;49.296;6.900;2022-07-26T01:06:17;24.00;49.60
66568;DHT22;53422;49.296;6.900;2022-07-26T01:08:43;24.00;50.60
66568;DHT22;53422;49.296;6.900;2022-07-26T01:11:08;24.00;49.70
66568;DHT22;53422;49.296;6.900;2022-07-26T01:13:34;24.00;49.50
66568;DHT22;53422;49.296;6.900;2022-07-26T01:16:00;24.00;49.50
66568;DHT22;53422;49.296;6.900;2022-07-26T01:18:25;23.90;49.60
66568;DHT22;53422;49.296;6.900;2022-07-26T01:20:51;23.90;49.60
66568;DHT22;53422;49.296;6.900;2022-07-26T01:23:18;23.90;49.60
66568;DHT22;53422;49.296;6.900;2022-07-26T01:25:44;23.80;49.40
66568;DHT22;53422;49.296;6.900;2022-07-26T01:28:10;23.90;49.60
66568;DHT22;53422;49.296;6.900;2022-07-26T01:30:36;23.80;49.40
66568;DHT22;53422;49.296;6.900;2022-07-26T01:33:01;23.80;49.30
66568;DHT22;53422;49.296;6.900;2022-07-26T01:35:27;23.80;49.30
66568;DHT22;53422;49.296;6.900;2022-07-26T01:37:53;23.80;49.40
66568;DHT22;53422;49.296;6.900;2022-07-26T01:40:18;23.80;49.70
66568;DHT22;53422;49.296;6.900;2022-07-26T01:42:44;23.70;49.40
66568;DHT22;53422;49.296;6.900;2022-07-26T01:45:11;23.70;49.40
66568;DHT22;53422;49.296;6.900;2022-07-26T01:47:37;23.70;49.50
66568;DHT22;53422;49.296;6.900;2022-07-26T01:50:04;23.70;49.50
66568;DHT22;53422;49.296;6.900;2022-07-26T01:52:30;23.60;49.50
66568;DHT22;53422;49.296;6.900;2022-07-26T01:54:57;23.60;49.50
66568;DHT22;53422;49.296;6.900;2022-07-26T01:57:23;23.60;49.50
66568;DHT22;53422;49.296;6.900;2022-07-26T01:59:48;23.60;49.50
66568;DHT22;53422;49.296;6.900;2022-07-26T02:02:14;23.60;49.50
66568;DHT22;53422;49.296;6.900;2022-07-26T02:04:40;23.50;49.60
66568;DHT22;53422;49.296;6.900;2022-07-26T02:07:25;23.50;49.60
66568;DHT22;53422;49.296;6.900;2022-07-26T02:09:50;23.50;49.70
66568;DHT22;53422;49.296;6.900;2022-07-26T02:12:16;23.50;49.70
66568;DHT22;53422;49.296;6.900;2022-07-26T02:14:41;23.50;49.70
66568;DHT22;53422;49.296;6.900;2022-07-26T02:17:07;23.50;49.70
66568;DHT22;53422;49.296;6.900;2022-07-26T02:19:33;23.50;49.70
66568;DHT22;53422;49.296;6.900;2022-07-26T02:21:59;23.50;49.70
66568;DHT22;53422;49.296;6.900;2022-07-26T02:24:25;23.40;49.70
66568;DHT22;53422;49.296;6.900;2022-07-26T02:26:55;23.40;49.70
66568;DHT22;53422;49.296;6.900;2022-07-26T02:29:20;23.40;49.70
66568;DHT22;53422;49.296;6.900;2022-07-26T02:31:46;23.40;49.80
66568;DHT22;53422;49.296;6.900;2022-07-26T02:34:12;23.40;49.80
66568;DHT22;53422;49.296;6.900;2022-07-26T02:36:37;23.40;49.90
66568;DHT22;53422;49.296;6.900;2022-07-26T02:39:04;23.30;49.80
66568;DHT22;53422;49.296;6.900;2022-07-26T02:41:30;23.30;49.80
66568;DHT22;53422;49.296;6.900;2022-07-26T02:43:56;23.30;49.80
66568;DHT22;53422;49.296;6.900;2022-07-26T02:46:22;23.40;49.80
66568;DHT22;53422;49.296;6.900;2022-07-26T02:48:47;23.30;49.90
66568;DHT22;53422;49.296;6.900;2022-07-26T02:51:13;23.30;50.00
66568;DHT22;53422;49.296;6.900;2022-07-26T02:53:39;23.30;49.90
66568;DHT22;53422;49.296;6.900;2022-07-26T02:56:04;23.30;50.00
66568;DHT22;53422;49.296;6.900;2022-07-26T02:58:30;23.30;50.00
66568;DHT22;53422;49.296;6.900;2022-07-26T03:00:56;23.20;49.90
66568;DHT22;53422;49.296;6.900;2022-07-26T03:03:21;23.30;50.00
66568;DHT22;53422;49.296;6.900;2022-07-26T03:05:47;23.20;50.00
66568;DHT22;53422;49.296;6.900;2022-07-26T03:08:13;23.30;50.10
66568;DHT22;53422;49.296;6.900;2022-07-26T03:10:38;23.20;50.00
66568;DHT22;53422;49.296;6.900;2022-07-26T03:13:04;23.30;50.10
66568;DHT22;53422;49.296;6.900;2022-07-26T03:15:30;23.30;50.00
66568;DHT22;53422;49.296;6.900;2022-07-26T03:17:55;23.20;50.00
66568;DHT22;53422;49.296;6.900;2022-07-26T03:20:21;23.20;50.00
66568;DHT22;53422;49.296;6.900;2022-07-26T03:22:47;23.20;49.90
66568;DHT22;53422;49.296;6.900;2022-07-26T03:25:13;23.20;50.00
66568;DHT22;53422;49.296;6.900;2022-07-26T03:27:39;23.20;50.10
66568;DHT22;53422;49.296;6.900;2022-07-26T03:30:05;23.20;50.10
66568;DHT22;53422;49.296;6.900;2022-07-26T03:32:31;23.20;50.10
66568;DHT22;53422;49.296;6.900;2022-07-26T03:34:56;23.20;50.00
66568;DHT22;53422;49.296;6.900;2022-07-26T03:37:22;23.20;50.10
66568;DHT22;53422;49.296;6.900;2022-07-26T03:39:48;23.10;50.00
66568;DHT22;53422;49.296;6.900;2022-07-26T03:42:14;23.10;50.00
66568;DHT22;53422;49.296;6.900;2022-07-26T03:44:40;23.10;50.10
66568;DHT22;53422;49.296;6.900;2022-07-26T03:47:06;23.10;50.10
66568;DHT22;53422;49.296;6.900;2022-07-26T03:49:32;23.10;51.20
66568;DHT22;53422;49.296;6.900;2022-07-26T03:51:57;23.10;50.10
66568;DHT22;53422;49.296;6.900;2022-07-26T03:54:23;23.00;50.10
66568;DHT22;53422;49.296;6.900;2022-07-26T03:56:49;23.00;50.10
66568;DHT22;53422;49.296;6.900;2022-07-26T03:59:15;23.00;50.20
66568;DHT22;53422;49.296;6.900;2022-07-26T04:01:42;22.90;50.10
66568;DHT22;53422;49.296;6.900;2022-07-26T04:04:09;22.90;50.20
66568;DHT22;53422;49.296;6.900;2022-07-26T04:06:35;22.90;50.10
66568;DHT22;53422;49.296;6.900;2022-07-26T04:09:02;22.90;50.20
66568;DHT22;53422;49.296;6.900;2022-07-26T04:11:27;22.90;50.20
66568;DHT22;53422;49.296;6.900;2022-07-26T04:13:53;22.90;50.30
66568;DHT22;53422;49.296;6.900;2022-07-26T04:16:19;22.80;50.30
66568;DHT22;53422;49.296;6.900;2022-07-26T04:18:44;22.80;50.30
66568;DHT22;53422;49.296;6.900;2022-07-26T04:21:10;22.80;50.40
66568;DHT22;53422;49.296;6.900;2022-07-26T04:23:36;22.80;50.40
66568;DHT22;53422;49.296;6.900;2022-07-26T04:26:02;22.80;50.50
66568;DHT22;53422;49.296;6.900;2022-07-26T04:28:27;22.80;50.50
66568;DHT22;53422;49.296;6.900;2022-07-26T04:30:57;22.70;50.60
66568;DHT22;53422;49.296;6.900;2022-07-26T04:33:23;22.70;50.60
66568;DHT22;53422;49.296;6.900;2022-07-26T04:35:48;22.70;50.60
66568;DHT22;53422;49.296;6.900;2022-07-26T04:38:14;22.70;50.70
66568;DHT22;53422;49.296;6.900;2022-07-26T04:40:40;22.70;50.70
66568;DHT22;53422;49.296;6.900;2022-07-26T04:43:05;22.70;50.90
66568;DHT22;53422;49.296;6.900;2022-07-26T04:45:31;22.70;50.80
66568;DHT22;53422;49.296;6.900;2022-07-26T04:47:57;22.70;50.80
66568;DHT22;53422;49.296;6.900;2022-07-26T04:50:23;22.70;50.80
66568;DHT22;53422;49.296;6.900;2022-07-26T04:52:50;22.70;50.90
66568;DHT22;53422;49.296;6.900;2022-07-26T04:55:17;22.70;51.00
66568;DHT22;53422;49.296;6.900;2022-07-26T04:57:43;22.70;51.00
66568;DHT22;53422;49.296;6.900;2022-07-26T05:00:11;22.70;51.00
66568;DHT22;53422;49.296;6.900;2022-07-26T05:02:37;22.70;51.10
66568;DHT22;53422;49.296;6.900;2022-07-26T05:05:04;22.70;51.10
66568;DHT22;53422;49.296;6.900;2022-07-26T05:07:45;22.70;51.20
66568;DHT22;53422;49.296;6.900;2022-07-26T05:10:13;22.80;51.30
66568;DHT22;53422;49.296;6.900;2022-07-26T05:12:40;22.80;51.30
66568;DHT22;53422;49.296;6.900;2022-07-26T05:15:06;22.80;51.30
66568;DHT22;53422;49.296;6.900;2022-07-26T05:17:32;22.80;51.50
66568;DHT22;53422;49.296;6.900;2022-07-26T05:19:58;22.80;51.50
66568;DHT22;53422;49.296;6.900;2022-07-26T05:22:24;22.90;51.40
66568;DHT22;53422;49.296;6.900;2022-07-26T05:24:49;22.90;51.40
66568;DHT22;53422;49.296;6.900;2022-07-26T05:27:15;23.00;51.40
66568;DHT22;53422;49.296;6.900;2022-07-26T05:29:40;23.00;51.20
66568;DHT22;53422;49.296;6.900;2022-07-26T05:32:06;23.00;51.10
66568;DHT22;53422;49.296;6.900;2022-07-26T05:34:32;23.00;51.20
66568;DHT22;53422;49.296;6.900;2022-07-26T05:36:57;23.00;50.90
66568;DHT22;53422;49.296;6.900;2022-07-26T05:39:23;23.10;50.90
66568;DHT22;53422;49.296;6.900;2022-07-26T05:41:49;23.10;50.80
66568;DHT22;53422;49.296;6.900;2022-07-26T05:44:14;23.20;50.90
66568;DHT22;53422;49.296;6.900;2022-07-26T05:46:40;23.20;50.80
66568;DHT22;53422;49.296;6.900;2022-07-26T05:49:06;23.30;50.80
66568;DHT22;53422;49.296;6.900;2022-07-26T05:51:32;23.30;50.70
66568;DHT22;53422;49.296;6.900;2022-07-26T05:53:58;23.30;50.60
66568;DHT22;53422;49.296;6.900;2022-07-26T05:56:24;23.30;50.20
66568;DHT22;53422;49.296;6.900;2022-07-26T05:58:50;23.30;50.50
66568;DHT22;53422;49.296;6.900;2022-07-26T06:01:15;23.40;50.30
66568;DHT22;53422;49.296;6.900;2022-07-26T06:03:41;23.40;50.40
66568;DHT22;53422;49.296;6.900;2022-07-26T06:06:07;23.40;50.30
66568;DHT22;53422;49.296;6.900;2022-07-26T06:08:32;23.40;50.50
66568;DHT22;53422;49.296;6.900;2022-07-26T06:10:58;23.50;51.50
66568;DHT22;53422;49.296;6.900;2022-07-26T06:13:24;23.50;50.20
66568;DHT22;53422;49.296;6.900;2022-07-26T06:15:50;23.50;50.30
66568;DHT22;53422;49.296;6.900;2022-07-26T06:18:16;23.50;50.50
66568;DHT22;53422;49.296;6.900;2022-07-26T06:20:43;23.60;50.00
66568;DHT22;53422;49.296;6.900;2022-07-26T06:23:10;23.60;50.10
66568;DHT22;53422;49.296;6.900;2022-07-26T06:25:35;23.60;49.70
66568;DHT22;53422;49.296;6.900;2022-07-26T06:28:02;23.70;49.80
66568;DHT22;53422;49.296;6.900;2022-07-26T06:30:28;23.70;49.70
66568;DHT22;53422;49.296;6.900;2022-07-26T06:32:54;23.80;49.60
66568;DHT22;53422;49.296;6.900;2022-07-26T06:35:20;23.70;49.60
66568;DHT22;53422;49.296;6.900;2022-07-26T06:37:46;23.70;49.90
66568;DHT22;53422;49.296;6.900;2022-07-26T06:40:11;23.70;49.60
66568;DHT22;53422;49.296;6.900;2022-07-26T06:42:37;23.80;49.40
66568;DHT22;53422;49.296;6.900;2022-07-26T06:45:03;23.80;49.70
66568;DHT22;53422;49.296;6.900;2022-07-26T06:47:29;23.80;49.50
66568;DHT22;53422;49.296;6.900;2022-07-26T06:49:55;23.80;49.50
66568;DHT22;53422;49.296;6.900;2022-07-26T06:52:21;23.80;49.40
66568;DHT22;53422;49.296;6.900;2022-07-26T06:54:47;23.80;49.80
66568;DHT22;53422;49.296;6.900;2022-07-26T06:57:12;23.70;49.80
66568;DHT22;53422;49.296;6.900;2022-07-26T06:59:38;23.80;49.60
66568;DHT22;53422;49.296;6.900;2022-07-26T07:02:04;23.80;49.60
66568;DHT22;53422;49.296;6.900;2022-07-26T07:04:30;23.80;49.60
66568;DHT22;53422;49.296;6.900;2022-07-26T07:06:57;23.80;49.60
66568;DHT22;53422;49.296;6.900;2022-07-26T07:09:27;23.90;50.50
66568;DHT22;53422;49.296;6.900;2022-07-26T07:11:53;24.00;49.40
66568;DHT22;53422;49.296;6.900;2022-07-26T07:14:19;24.10;49.40
66568;DHT22;53422;49.296;6.900;2022-07-26T07:16:44;24.10;49.50
66568;DHT22;53422;49.296;6.900;2022-07-26T07:19:10;24.10;49.90
66568;DHT22;53422;49.296;6.900;2022-07-26T07:21:36;24.10;49.40
66568;DHT22;53422;49.296;6.900;2022-07-26T07:24:01;24.10;49.50
66568;DHT22;53422;49.296;6.900;2022-07-26T07:26:27;24.10;49.80
66568;DHT22;53422;49.296;6.900;2022-07-26T07:28:52;24.10;49.40
66568;DHT22;53422;49.296;6.900;2022-07-26T07:31:18;24.10;49.40
66568;DHT22;53422;49.296;6.900;2022-07-26T07:33:44;24.20;49.50
66568;DHT22;53422;49.296;6.900;2022-07-26T07:36:09;24.30;49.40
66568;DHT22;53422;49.296;6.900;2022-07-26T07:38:35;24.30;49.10
66568;DHT22;53422;49.296;6.900;2022-07-26T07:41:01;24.30;49.20
66568;DHT22;53422;49.296;6.900;2022-07-26T07:43:26;24.30;49.40
66568;DHT22;53422;49.296;6.900;2022-07-26T07:45:52;24.40;49.30
66568;DHT22;53422;49.296;6.900;2022-07-26T07:48:17;24.40;49.30
66568;DHT22;53422;49.296;6.900;2022-07-26T07:50:43;24.50;49.30
66568;DHT22;53422;49.296;6.900;2022-07-26T07:53:09;24.40;49.40
66568;DHT22;53422;49.296;6.900;2022-07-26T07:55:35;24.50;49.50
66568;DHT22;53422;49.296;6.900;2022-07-26T07:58:00;24.70;49.30
66568;DHT22;53422;49.296;6.900;2022-07-26T08:00:26;24.70;48.90
66568;DHT22;53422;49.296;6.900;2022-07-26T08:02:52;24.80;48.80
66568;DHT22;53422;49.296;6.900;2022-07-26T08:05:17;24.90;48.90
66568;DHT22;53422;49.296;6.900;2022-07-26T08:07:43;25.00;48.70
66568;DHT22;53422;49.296;6.900;2022-07-26T08:10:09;25.00;48.40
66568;DHT22;53422;49.296;6.900;2022-07-26T08:12:35;25.10;48.30
66568;DHT22;53422;49.296;6.900;2022-07-26T08:15:01;25.10;48.60
66568;DHT22;53422;49.296;6.900;2022-07-26T08:17:27;25.30;48.10
66568;DHT22;53422;49.296;6.900;2022-07-26T08:19:52;25.40;47.60
66568;DHT22;53422;49.296;6.900;2022-07-26T08:22:18;25.50;47.90
66568;DHT22;53422;49.296;6.900;2022-07-26T08:24:44;25.50;47.60
66568;DHT22;53422;49.296;6.900;2022-07-26T08:27:11;25.60;47.20
66568;DHT22;53422;49.296;6.900;2022-07-26T08:29:37;25.70;47.10
66568;DHT22;53422;49.296;6.900;2022-07-26T08:32:03;25.80;47.20
66568;DHT22;53422;49.296;6.900;2022-07-26T08:34:29;26.00;46.90
66568;DHT22;53422;49.296;6.900;2022-07-26T08:36:54;26.00;46.70
66568;DHT22;53422;49.296;6.900;2022-07-26T08:39:20;26.10;46.90
66568;DHT22;53422;49.296;6.900;2022-07-26T08:41:45;26.20;46.50
66568;DHT22;53422;49.296;6.900;2022-07-26T08:44:11;26.20;46.20
66568;DHT22;53422;49.296;6.900;2022-07-26T08:46:39;26.20;46.80
66568;DHT22;53422;49.296;6.900;2022-07-26T08:49:06;26.20;46.60
66568;DHT22;53422;49.296;6.900;2022-07-26T08:51:32;26.20;46.50
66568;DHT22;53422;49.296;6.900;2022-07-26T08:54:00;26.20;46.10
66568;DHT22;53422;49.296;6.900;2022-07-26T08:56:26;26.30;46.10
66568;DHT22;53422;49.296;6.900;2022-07-26T08:58:52;26.40;45.50
66568;DHT22;53422;49.296;6.900;2022-07-26T09:01:17;26.50;45.10
66568;DHT22;53422;49.296;6.900;2022-07-26T09:03:44;26.60;45.20
66568;DHT22;53422;49.296;6.900;2022-07-26T09:06:20;26.70;45.50
66568;DHT22;53422;49.296;6.900;2022-07-26T09:08:49;26.80;45.00
66568;DHT22;53422;49.296;6.900;2022-07-26T09:11:27;26.80;43.90
66568;DHT22;53422;49.296;6.900;2022-07-26T09:14:02;26.80;44.80
66568;DHT22;53422;49.296;6.900;2022-07-26T09:16:28;26.80;46.00
66568;DHT22;53422;49.296;6.900;2022-07-26T09:18:54;26.80;44.50
66568;DHT22;53422;49.296;6.900;2022-07-26T09:21:34;26.70;45.00
66568;DHT22;53422;49.296;6.900;2022-07-26T09:24:03;26.80;44.60
66568;DHT22;53422;49.296;6.900;2022-07-26T09:26:29;27.00;44.00
66568;DHT22;53422;49.296;6.900;2022-07-26T09:29:09;27.00;43.80
66568;DHT22;53422;49.296;6.900;2022-07-26T09:31:36;27.20;43.80
66568;DHT22;53422;49.296;6.900;2022-07-26T09:34:03;27.20;43.20
66568;DHT22;53422;49.296;6.900;2022-07-26T09:36:29;27.20;43.90
66568;DHT22;53422;49.296;6.900;2022-07-26T09:38:58;27.30;44.00
66568;DHT22;53422;49.296;6.900;2022-07-26T09:41:27;27.20;43.30
66568;DHT22;53422;49.296;6.900;2022-07-26T09:43:55;27.20;43.20
66568;DHT22;53422;49.296;6.900;2022-07-26T09:46:23;27.40;42.90
66568;DHT22;53422;49.296;6.900;2022-07-26T09:48:51;27.50;42.60
66568;DHT22;53422;49.296;6.900;2022-07-26T09:51:34;27.60;43.10
66568;DHT22;53422;49.296;6.900;2022-07-26T09:54:01;27.60;42.60
66568;DHT22;53422;49.296;6.900;2022-07-26T09:56:45;27.60;43.80
66568;DHT22;53422;49.296;6.900;2022-07-26T09:59:13;27.60;42.00
66568;DHT22;53422;49.296;6.900;2022-07-26T10:01:40;27.60;42.10
66568;DHT22;53422;49.296;6.900;2022-07-26T10:04:05;27.60;42.30
66568;DHT22;53422;49.296;6.900;2022-07-26T10:06:31;27.70;42.40
66568;DHT22;53422;49.296;6.900;2022-07-26T10:08:58;27.80;42.40
66568;DHT22;53422;49.296;6.900;2022-07-26T10:11:26;27.70;42.20
66568;DHT22;53422;49.296;6.900;2022-07-26T10:13:53;27.60;42.30
66568;DHT22;53422;49.296;6.900;2022-07-26T10:16:31;27.70;42.40
66568;DHT22;53422;49.296;6.900;2022-07-26T10:18:57;27.70;42.40
66568;DHT22;53422;49.296;6.900;2022-07-26T10:21:24;27.60;41.70
66568;DHT22;53422;49.296;6.900;2022-07-26T10:31:45;27.70;42.00
66568;DHT22;53422;49.296;6.900;2022-07-26T10:36:58;27.80;41.90
66568;DHT22;53422;49.296;6.900;2022-07-26T10:39:24;27.80;41.50
66568;DHT22;53422;49.296;6.900;2022-07-26T10:42:07;27.70;41.20
66568;DHT22;53422;49.296;6.900;2022-07-26T10:44:41;27.70;42.40
66568;DHT22;53422;49.296;6.900;2022-07-26T10:50:01;27.80;41.30
66568;DHT22;53422;49.296;6.900;2022-07-26T10:52:31;27.70;41.20
66568;DHT22;53422;49.296;6.900;2022-07-26T10:59:55;27.90;41.10
66568;DHT22;53422;49.296;6.900;2022-07-26T11:02:28;27.90;40.70
66568;DHT22;53422;49.296;6.900;2022-07-26T11:05:03;27.90;40.20
66568;DHT22;53422;49.296;6.900;2022-07-26T11:07:30;28.00;40.20
66568;DHT22;53422;49.296;6.900;2022-07-26T11:09:56;28.10;40.60
66568;DHT22;53422;49.296;6.900;2022-07-26T11:12:22;28.10;40.20
66568;DHT22;53422;49.296;6.900;2022-07-26T11:14:48;28.10;40.30
66568;DHT22;53422;49.296;6.900;2022-07-26T11:17:26;28.20;40.20
66568;DHT22;53422;49.296;6.900;2022-07-26T11:19:52;28.10;41.00
66568;DHT22;53422;49.296;6.900;2022-07-26T11:22:18;28.10;40.90
66568;DHT22;53422;49.296;6.900;2022-07-26T11:24:43;28.20;40.50
66568;DHT22;53422;49.296;6.900;2022-07-26T11:27:09;28.20;40.50
66568;DHT22;53422;49.296;6.900;2022-07-26T11:29:37;28.10;40.40
66568;DHT22;53422;49.296;6.900;2022-07-26T11:32:03;28.00;40.20
66568;DHT22;53422;49.296;6.900;2022-07-26T11:34:32;28.00;40.60
66568;DHT22;53422;49.296;6.900;2022-07-26T11:37:03;27.90;40.60
66568;DHT22;53422;49.296;6.900;2022-07-26T11:39:33;27.90;40.70
66568;DHT22;53422;49.296;6.900;2022-07-26T11:42:10;27.90;40.30
66568;DHT22;53422;49.296;6.900;2022-07-26T11:44:38;27.90;40.40
66568;DHT22;53422;49.296;6.900;2022-07-26T11:47:20;27.90;40.50
66568;DHT22;53422;49.296;6.900;2022-07-26T11:49:47;28.00;39.90
66568;DHT22;53422;49.296;6.900;2022-07-26T11:52:13;28.00;40.30
66568;DHT22;53422;49.296;6.900;2022-07-26T11:54:45;28.00;40.80
66568;DHT22;53422;49.296;6.900;2022-07-26T11:57:11;27.90;40.30
66568;DHT22;53422;49.296;6.900;2022-07-26T11:59:38;27.90;40.40
66568;DHT22;53422;49.296;6.900;2022-07-26T12:02:05;27.80;39.90
66568;DHT22;53422;49.296;6.900;2022-07-26T12:04:33;27.80;40.30
66568;DHT22;53422;49.296;6.900;2022-07-26T12:07:00;27.80;41.10
66568;DHT22;53422;49.296;6.900;2022-07-26T12:09:33;27.80;42.00
66568;DHT22;53422;49.296;6.900;2022-07-26T12:12:05;27.80;41.10
66568;DHT22;53422;49.296;6.900;2022-07-26T12:14:33;27.70;40.60
66568;DHT22;53422;49.296;6.900;2022-07-26T12:17:11;27.70;41.20
66568;DHT22;53422;49.296;6.900;2022-07-26T12:19:37;27.60;41.30
66568;DHT22;53422;49.296;6.900;2022-07-26T12:22:20;27.60;41.20
66568;DHT22;53422;49.296;6.900;2022-07-26T12:24:55;27.60;41.10
66568;DHT22;53422;49.296;6.900;2022-07-26T12:27:25;27.60;41.20
66568;DHT22;53422;49.296;6.900;2022-07-26T12:29:52;27.60;41.60
66568;DHT22;53422;49.296;6.900;2022-07-26T12:32:19;27.50;40.90
66568;DHT22;53422;49.296;6.900;2022-07-26T12:34:59;27.50;41.70
66568;DHT22;53422;49.296;6.900;2022-07-26T12:37:26;27.40;41.30
66568;DHT22;53422;49.296;6.900;2022-07-26T12:42:53;27.40;42.40
66568;DHT22;53422;49.296;6.900;2022-07-26T12:45:20;27.30;41.50
66568;DHT22;53422;49.296;6.900;2022-07-26T12:47:51;27.40;42.00
66568;DHT22;53422;49.296;6.900;2022-07-26T12:50:19;27.40;41.90
66568;DHT22;53422;49.296;6.900;2022-07-26T12:52:45;27.30;41.60
66568;DHT22;53422;49.296;6.900;2022-07-26T12:55:13;27.20;41.60
66568;DHT22;53422;49.296;6.900;2022-07-26T12:57:44;27.20;41.50
66568;DHT22;53422;49.296;6.900;2022-07-26T13:00:11;27.10;41.50
66568;DHT22;53422;49.296;6.900;2022-07-26T13:02:38;27.20;41.70
66568;DHT22;53422;49.296;6.900;2022-07-26T13:05:05;27.20;41.70
66568;DHT22;53422;49.296;6.900;2022-07-26T13:07:30;27.20;41.00
66568;DHT22;53422;49.296;6.900;2022-07-26T13:09:56;27.10;41.80
66568;DHT22;53422;49.296;6.900;2022-07-26T13:12:22;27.10;42.10
66568;DHT22;53422;49.296;6.900;2022-07-26T13:14:48;27.10;41.90
66568;DHT22;53422;49.296;6.900;2022-07-26T13:17:14;27.00;42.00
66568;DHT22;53422;49.296;6.900;2022-07-26T13:19:40;27.00;42.10
66568;DHT22;53422;49.296;6.900;2022-07-26T13:22:06;27.00;41.80
66568;DHT22;53422;49.296;6.900;2022-07-26T13:24:33;27.00;41.30
66568;DHT22;53422;49.296;6.900;2022-07-26T13:27:00;27.10;41.60
66568;DHT22;53422;49.296;6.900;2022-07-26T13:29:26;27.10;41.60
66568;DHT22;53422;49.296;6.900;2022-07-26T13:31:52;27.10;41.70
66568;DHT22;53422;49.296;6.900;2022-07-26T13:34:18;27.20;41.50
66568;DHT22;53422;49.296;6.900;2022-07-26T13:36:45;27.20;41.50
66568;DHT22;53422;49.296;6.900;2022-07-26T13:39:10;27.30;41.40
66568;DHT22;53422;49.296;6.900;2022-07-26T13:41:36;27.30;41.60
66568;DHT22;53422;49.296;6.900;2022-07-26T13:44:02;27.30;42.30
66568;DHT22;53422;49.296;6.900;2022-07-26T13:46:28;27.30;42.00
66568;DHT22;53422;49.296;6.900;2022-07-26T13:49:00;27.20;41.30
66568;DHT22;53422;49.296;6.900;2022-07-26T13:51:28;27.20;42.00
66568;DHT22;53422;49.296;6.900;2022-07-26T13:54:14;27.30;41.80
66568;DHT22;53422;49.296;6.900;2022-07-26T13:56:41;27.30;41.30
66568;DHT22;53422;49.296;6.900;2022-07-26T13:59:07;27.30;41.30
66568;DHT22;53422;49.296;6.900;2022-07-26T14:01:33;27.30;41.80
66568;DHT22;53422;49.296;6.900;2022-07-26T14:04:01;27.30;41.70
66568;DHT22;53422;49.296;6.900;2022-07-26T14:06:27;27.30;41.80
66568;DHT22;53422;49.296;6.900;2022-07-26T14:08:53;27.30;41.90
66568;DHT22;53422;49.296;6.900;2022-07-26T14:11:19;27.40;41.80
66568;DHT22;53422;49.296;6.900;2022-07-26T14:13:45;27.40;41.30
66568;DHT22;53422;49.296;6.900;2022-07-26T14:16:12;27.50;41.70
66568;DHT22;53422;49.296;6.900;2022-07-26T14:18:38;27.50;41.40
66568;DHT22;53422;49.296;6.900;2022-07-26T14:21:03;27.50;41.70
66568;DHT22;53422;49.296;6.900;2022-07-26T14:23:29;27.50;40.80
66568;DHT22;53422;49.296;6.900;2022-07-26T14:25:55;27.60;40.90
66568;DHT22;53422;49.296;6.900;2022-07-26T14:28:21;27.70;41.20
66568;DHT22;53422;49.296;6.900;2022-07-26T14:30:47;27.70;41.10
66568;DHT22;53422;49.296;6.900;2022-07-26T14:33:12;27.80;40.20
66568;DHT22;53422;49.296;6.900;2022-07-26T14:35:38;27.80;40.10
66568;DHT22;53422;49.296;6.900;2022-07-26T14:38:06;27.80;38.70
66568;DHT22;53422;49.296;6.900;2022-07-26T14:40:31;27.80;39.90
66568;DHT22;53422;49.296;6.900;2022-07-26T14:42:57;27.90;39.60
66568;DHT22;53422;49.296;6.900;2022-07-26T14:45:23;27.90;39.20
66568;DHT22;53422;49.296;6.900;2022-07-26T14:47:48;28.00;38.80
66568;DHT22;53422;49.296;6.900;2022-07-26T14:50:14;28.00;38.30
66568;DHT22;53422;49.296;6.900;2022-07-26T14:52:42;28.10;38.20
66568;DHT22;53422;49.296;6.900;2022-07-26T14:55:09;28.10;38.50
66568;DHT22;53422;49.296;6.900;2022-07-26T14:57:36;28.20;38.00
66568;DHT22;53422;49.296;6.900;2022-07-26T15:00:03;28.30;37.80
66568;DHT22;53422;49.296;6.900;2022-07-26T15:02:29;28.30;38.10
66568;DHT22;53422;49.296;6.900;2022-07-26T15:04:56;28.30;38.00
66568;DHT22;53422;49.296;6.900;2022-07-26T15:07:21;28.40;37.20
66568;DHT22;53422;49.296;6.900;2022-07-26T15:09:47;28.40;38.10
66568;DHT22;53422;49.296;6.900;2022-07-26T15:12:12;28.40;37.90
66568;DHT22;53422;49.296;6.900;2022-07-26T15:14:38;28.30;37.80
66568;DHT22;53422;49.296;6.900;2022-07-26T15:17:05;28.40;37.90
66568;DHT22;53422;49.296;6.900;2022-07-26T15:19:30;28.40;37.90
66568;DHT22;53422;49.296;6.900;2022-07-26T15:21:56;28.50;37.70
66568;DHT22;53422;49.296;6.900;2022-07-26T15:24:23;28.50;37.30
66568;DHT22;53422;49.296;6.900;2022-07-26T15:26:49;28.40;37.60
66568;DHT22;53422;49.296;6.900;2022-07-26T15:29:14;28.40;37.50
66568;DHT22;53422;49.296;6.900;2022-07-26T15:31:40;28.40;37.20
66568;DHT22;53422;49.296;6.900;2022-07-26T15:34:06;28.40;37.50
66568;DHT22;53422;49.296;6.900;2022-07-26T15:36:32;28.50;36.80
66568;DHT22;53422;49.296;6.900;2022-07-26T15:38:58;28.60;36.90
66568;DHT22;53422;49.296;6.900;2022-07-26T15:41:23;28.50;36.90
66568;DHT22;53422;49.296;6.900;2022-07-26T15:43:49;28.50;36.20
66568;DHT22;53422;49.296;6.900;2022-07-26T15:46:15;28.40;37.60
66568;DHT22;53422;49.296;6.900;2022-07-26T15:48:41;28.50;36.50